createdAt,value
2022-09-20T00:02:06.679Z,100433.66
2022-09-20T00:07:08.509Z,100436.19
2022-09-20T00:12:10.176Z,100436.47
2022-09-20T00:17:11.792Z,100428.81
2022-09-20T00:22:13.416Z,100434.41
2022-09-20T00:27:15.027Z,100434.03
2022-09-20T00:32:16.725Z,100436.84
2022-09-20T00:37:18.363Z,100432.66
2022-09-20T00:42:19.969Z,100429.31
2022-09-20T00:47:39.998Z,100434.81
2022-09-20T00:52:45.468Z,100433.91
2022-09-20T00:57:48.181Z,100439.31
2022-09-20T01:02:56.020Z,100434.66
2022-09-20T01:07:57.999Z,100441.22
2022-09-20T01:12:59.623Z,100436.41
2022-09-20T01:18:02.871Z,100440.41
2022-09-20T01:23:40.129Z,100434.75
2022-09-20T01:28:45.368Z,100438.44
2022-09-20T01:34:00.697Z,100440.84
2022-09-20T01:39:44.194Z,100446.34
2022-09-20T01:45:10.795Z,100442.75
2022-09-20T01:50:39.735Z,100448.88
2022-09-20T01:55:41.307Z,100449.91
2022-09-20T02:01:04.187Z,100448.16
2022-09-20T02:06:23.639Z,100449.22
2022-09-20T02:11:54.386Z,100457.38
2022-09-20T02:17:00.643Z,100456.66
2022-09-20T02:22:20.139Z,100444.25
2022-09-20T02:27:41.624Z,100457.22
2022-09-20T02:33:01.208Z,100448.69
2022-09-20T02:38:21.248Z,100463.34
2022-09-20T02:43:59.996Z,100464.00
2022-09-20T02:49:13.031Z,100460.22
2022-09-20T02:54:24.686Z,100456.69
2022-09-20T02:59:45.565Z,100458.34
2022-09-20T03:05:05.344Z,100463.72
2022-09-20T03:10:25.216Z,100451.28
2022-09-20T03:15:37.303Z,100456.69
2022-09-20T03:21:30.334Z,100458.06
2022-09-20T03:26:55.160Z,100459.56
2022-09-20T03:32:19.951Z,100469.88
2022-09-20T03:37:21.499Z,100464.97
2022-09-20T03:42:30.424Z,100459.03
2022-09-20T03:47:41.337Z,100463.16
2022-09-20T03:52:58.053Z,100463.38
2022-09-20T03:58:06.866Z,100463.94
2022-09-20T04:03:42.923Z,100462.63
2022-09-20T04:09:25.032Z,100458.66
2022-09-20T04:14:35.487Z,100471.94
2022-09-20T04:20:14.034Z,100462.19
2022-09-20T04:25:23.785Z,100460.41
2022-09-20T04:30:30.338Z,100462.13
2022-09-20T04:36:12.199Z,100467.50
2022-09-20T04:41:39.409Z,100455.78
2022-09-20T04:46:43.626Z,100467.72
2022-09-20T04:52:19.652Z,100466.94
2022-09-20T04:57:49.054Z,100461.88
2022-09-20T05:03:05.993Z,100474.06
2022-09-20T05:08:26.439Z,100481.03
2022-09-20T05:13:58.958Z,100477.94
2022-09-20T05:19:13.611Z,100487.06
2022-09-20T05:24:24.511Z,100485.84
2022-09-20T05:29:36.994Z,100492.53
2022-09-20T05:35:04.852Z,100486.41
2022-09-20T05:40:31.108Z,100487.00
2022-09-20T05:45:57.510Z,100505.06
2022-09-20T05:51:15.827Z,100504.91
2022-09-20T05:56:29.461Z,100514.03
2022-09-20T06:01:42.076Z,100507.31
2022-09-20T06:07:02.100Z,100519.28
2022-09-20T06:12:35.458Z,100517.56
2022-09-20T06:17:59.756Z,100522.44
2022-09-20T06:23:05.526Z,100521.56
2022-09-20T06:28:15.906Z,100526.25
2022-09-20T06:33:20.671Z,100526.66
2022-09-20T06:38:43.719Z,100522.66
2022-09-20T06:43:45.668Z,100526.44
2022-09-20T06:48:47.371Z,100529.59
2022-09-20T06:53:49.647Z,100527.94
2022-09-20T06:58:52.795Z,100536.31
2022-09-20T07:03:54.408Z,100525.59
2022-09-20T07:08:56.091Z,100529.03
2022-09-20T07:14:00.493Z,100529.03
2022-09-20T07:19:03.222Z,100529.31
2022-09-20T07:24:05.041Z,100535.06
2022-09-20T07:29:07.896Z,100534.38
2022-09-20T07:34:11.141Z,100540.56
2022-09-20T07:39:12.929Z,100540.91
2022-09-20T07:44:28.033Z,100538.38
2022-09-20T07:49:30.404Z,100537.09
2022-09-20T07:54:32.069Z,100541.16
2022-09-20T07:59:33.752Z,100525.66
2022-09-20T08:04:35.413Z,100529.31
2022-09-20T08:09:37.059Z,100532.56
2022-09-20T08:14:38.701Z,100545.84
2022-09-20T08:19:40.497Z,100542.47
2022-09-20T08:24:42.569Z,100534.53
2022-09-20T08:29:44.194Z,100544.59
2022-09-20T08:34:49.258Z,100536.59
2022-09-20T08:39:58.948Z,100544.88
2022-09-20T08:45:03.644Z,100547.00
2022-09-20T08:50:10.127Z,100550.72
2022-09-20T08:55:23.105Z,100561.63
2022-09-20T09:00:33.804Z,100570.06
2022-09-20T09:05:43.141Z,100573.06
2022-09-20T09:10:48.021Z,100574.53
2022-09-20T09:15:59.018Z,100565.06
2022-09-20T09:21:04.300Z,100570.41
2022-09-20T09:26:06.066Z,100559.19
2022-09-20T09:31:23.184Z,100567.97
2022-09-20T09:36:26.207Z,100566.25
2022-09-20T09:41:35.410Z,100569.41
2022-09-20T09:46:40.250Z,100575.59
2022-09-20T09:52:03.183Z,100577.44
2022-09-20T09:57:20.831Z,100586.22
2022-09-20T10:02:23.553Z,100577.13
2022-09-20T10:07:46.977Z,100580.16
2022-09-20T10:13:10.937Z,100569.66
2022-09-20T10:18:44.109Z,100563.00
2022-09-20T10:24:23.438Z,100557.19
2022-09-20T10:29:26.239Z,100547.97
2022-09-20T10:34:52.340Z,100539.00
2022-09-20T10:40:20.514Z,100540.69
2022-09-20T10:46:08.424Z,100532.50
2022-09-20T10:51:06.585Z,100538.31
2022-09-20T10:56:56.323Z,100546.88
2022-09-20T11:01:58.141Z,100553.22
2022-09-20T11:07:21.936Z,100556.84
2022-09-20T11:12:50.116Z,100567.25
2022-09-20T11:18:09.738Z,100569.50
2022-09-20T11:23:16.691Z,100576.56
2022-09-20T11:28:36.216Z,100565.69
2022-09-20T11:33:52.481Z,100575.06
2022-09-20T11:39:48.481Z,100583.91
2022-09-20T11:44:51.147Z,100576.63
2022-09-20T11:49:52.715Z,100582.13
2022-09-20T11:55:08.463Z,100574.25
2022-09-20T12:00:10.514Z,100563.78
2022-09-20T12:05:38.169Z,100575.69
2022-09-20T12:10:40.631Z,100573.25
2022-09-20T12:15:42.700Z,100558.78
2022-09-20T12:20:45.104Z,100565.38
2022-09-20T12:26:18.901Z,100574.41
2022-09-20T12:31:29.154Z,100577.13
2022-09-20T12:36:32.816Z,100579.38
2022-09-20T12:41:46.597Z,100581.75
2022-09-20T12:47:12.586Z,100580.53
2022-09-20T12:52:50.988Z,100578.75
2022-09-20T12:58:02.299Z,100576.22
2022-09-20T13:03:21.733Z,100577.56
2022-09-20T13:08:30.142Z,100587.25
2022-09-20T13:13:35.905Z,100588.31
2022-09-20T13:18:37.934Z,100582.09
2022-09-20T13:23:49.444Z,100582.09
2022-09-20T13:28:56.110Z,100564.22
2022-09-20T13:34:21.442Z,100562.41
2022-09-20T13:39:27.845Z,100560.16
2022-09-20T13:44:34.468Z,100563.44
2022-09-20T13:49:43.155Z,100569.28
2022-09-20T13:54:44.789Z,100563.78
2022-09-20T13:59:47.144Z,100560.31
2022-09-20T14:04:50.549Z,100555.56
2022-09-20T14:09:53.074Z,100547.47
2022-09-20T14:14:55.343Z,100545.00
2022-09-20T14:19:58.375Z,100540.34
2022-09-20T14:25:22.087Z,100531.88
2022-09-20T14:30:32.735Z,100538.84
2022-09-20T14:35:34.551Z,100543.03
2022-09-20T14:40:47.659Z,100545.81
2022-09-20T14:45:58.772Z,100541.22
2022-09-20T14:51:22.672Z,100535.75
2022-09-20T14:56:34.712Z,100541.09
2022-09-20T15:01:41.140Z,100537.22
2022-09-20T15:06:43.065Z,100543.13
2022-09-20T15:11:45.001Z,100538.91
2022-09-20T15:16:46.781Z,100527.00
2022-09-20T15:21:48.590Z,100545.72
2022-09-20T15:26:54.353Z,100537.59
2022-09-20T15:32:00.224Z,100550.44
2022-09-20T15:37:02.033Z,100548.19
2022-09-20T15:42:13.945Z,100541.81
2022-09-20T15:47:22.019Z,100544.97
2022-09-20T15:52:29.107Z,100541.13
2022-09-20T15:57:35.160Z,100544.09
2022-09-20T16:02:37.584Z,100548.41
2022-09-20T16:07:40.346Z,100540.63
2022-09-20T16:12:42.117Z,100538.16
2022-09-20T16:18:02.354Z,100540.22
2022-09-20T16:23:04.448Z,100548.13
2022-09-20T16:28:06.129Z,100551.88
2022-09-20T16:33:11.882Z,100560.03
2022-09-20T16:38:14.162Z,100566.41
2022-09-20T16:43:25.877Z,100564.06
2022-09-20T16:48:31.349Z,100571.91
2022-09-20T16:53:33.033Z,100574.91
2022-09-20T16:58:36.529Z,100582.94
2022-09-20T17:03:40.860Z,100581.38
2022-09-20T17:08:44.928Z,100581.72
2022-09-20T17:13:48.035Z,100588.09
2022-09-20T17:19:40.216Z,100594.16
2022-09-20T17:24:41.882Z,100607.19
2022-09-20T17:29:45.551Z,100603.31
2022-09-20T17:34:47.228Z,100609.06
2022-09-20T17:39:50.455Z,100618.47
2022-09-20T17:44:52.346Z,100620.94
2022-09-20T17:49:54.991Z,100628.38
2022-09-20T17:54:57.064Z,100629.06
2022-09-20T17:59:59.256Z,100637.50
2022-09-20T18:05:02.011Z,100646.31
2022-09-20T18:10:04.989Z,100648.00
2022-09-20T18:15:07.290Z,100648.34
2022-09-20T18:20:09.847Z,100659.44
2022-09-20T18:25:11.468Z,100660.53
2022-09-20T18:30:13.170Z,100663.22
2022-09-20T18:35:14.832Z,100665.69
2022-09-20T18:40:16.585Z,100681.19
2022-09-20T18:45:19.425Z,100686.59
2022-09-20T18:50:21.528Z,100689.56
2022-09-20T18:55:24.928Z,100692.50
2022-09-20T19:00:27.008Z,100696.72
2022-09-20T19:05:28.714Z,100703.69
2022-09-20T19:10:54.454Z,100705.94
2022-09-20T19:16:18.723Z,100716.66
2022-09-20T19:21:20.761Z,100718.75
2022-09-20T19:26:25.934Z,100732.38
2022-09-20T19:31:33.409Z,100727.16
2022-09-20T19:36:49.272Z,100729.59
2022-09-20T19:41:58.301Z,100727.75
2022-09-20T19:47:06.255Z,100741.13
2022-09-20T19:52:12.136Z,100749.44
2022-09-20T19:57:24.068Z,100743.47
2022-09-20T20:02:25.855Z,100747.59
2022-09-20T20:07:45.654Z,100754.38
2022-09-20T20:13:00.687Z,100759.47
2022-09-20T20:18:21.653Z,100761.28
2022-09-20T20:23:34.651Z,100768.03
2022-09-20T20:28:37.772Z,100768.81
2022-09-20T20:33:39.774Z,100768.94
2022-09-20T20:45:06.027Z,100781.19
2022-09-20T20:50:08.182Z,100785.97
2022-09-20T20:55:10.790Z,100784.13
2022-09-20T21:00:13.032Z,100785.13
2022-09-20T21:05:15.509Z,100790.78
2022-09-20T21:10:17.115Z,100794.56
2022-09-20T21:15:18.826Z,100799.59
2022-09-20T21:20:21.669Z,100806.69
2022-09-20T21:25:23.294Z,100804.25
2022-09-20T21:30:24.949Z,100798.25
2022-09-20T21:35:26.625Z,100808.00
2022-09-20T21:40:28.359Z,100816.28
2022-09-20T21:45:30.101Z,100824.00
2022-09-20T21:50:31.716Z,100821.06
2022-09-20T21:55:33.530Z,100822.53
2022-09-20T22:00:35.885Z,100832.72
2022-09-20T22:05:37.573Z,100831.81
2022-09-20T22:10:39.174Z,100832.97
2022-09-20T22:15:40.807Z,100831.03
2022-09-20T22:20:42.433Z,100831.50
2022-09-20T22:25:44.081Z,100835.78
2022-09-20T22:30:45.719Z,100832.16
2022-09-20T22:35:47.350Z,100834.38
2022-09-20T22:40:53.957Z,100825.75
2022-09-20T22:46:05.139Z,100832.78
2022-09-20T22:51:09.495Z,100828.34
2022-09-20T22:56:15.273Z,100828.44
2022-09-20T23:01:25.992Z,100825.81
2022-09-20T23:06:30.970Z,100821.66
2022-09-20T23:11:32.792Z,100829.88
2022-09-20T23:16:36.702Z,100843.22
2022-09-20T23:21:39.502Z,100846.22
2022-09-20T23:26:42.392Z,100846.00
2022-09-20T23:31:47.229Z,100851.19
2022-09-20T23:36:49.036Z,100845.13
2022-09-20T23:41:51.439Z,100844.22
2022-09-20T23:46:53.219Z,100844.34
2022-09-20T23:51:55.048Z,100839.19
2022-09-20T23:56:56.648Z,100842.69
